Flight Track Log - Related Links

Times and Time Zones

All times are in EDT time to prevent confusion due to time zone crossing. See the UAL4335 flight status page for this flight to view local times or setup timezone preferences in your user account.

Time Position Orientation Groundspeed Altitude Reporting Facility
EDT Latitude Longitude Course Direction KTS MPH feet Rate Location/Type
Mon 12:41:04 PM 40.7500 -74.1167 303° West 200 230 2,400  Level New York TRACON
Mon 12:42:04 PM 40.7667 -74.2000 285° West 236 272 3,900 1,842 Climbing New York TRACON
Mon 12:42:58 PM 40.7667 -74.2667 270° West 246 283 5,900 2,066 Climbing New York TRACON
Mon 12:43:00 PM 40.7486 -74.6840 277° West  Level FlightAware Approximate
Mon 12:44:00 PM 40.7592 -74.8183 276° West  Level FlightAware Approximate
Mon 12:44:06 PM 40.7689 -74.3825 271° West 261 300 8,100  Level New York Center
Mon 12:45:00 PM 40.7777 -74.9497 294° West  Level FlightAware Approximate
Mon 12:45:07 PM 40.7703 -74.4703 271° West 261 300 9,800  Level New York Center
Mon 12:46:00 PM 40.7902 -75.0805 303° West  Level FlightAware Approximate
Mon 12:46:05 PM 40.7772 -74.5775 275° West 287 330 11,100  Level New York Center
Mon 12:47:06 PM 40.7822 -74.6792 274° West 317 365 12,000 1,033 Climbing New York Center
Mon 12:48:07 PM 40.7908 -74.7975 276° West 311 358 13,200 1,240 Climbing New York Center
Mon 12:49:07 PM 40.7950 -74.9183 273° West 318 366 14,500 1,220 Climbing New York Center
Mon 12:50:05 PM 40.7992 -75.0364 273° West 323 372 15,600 1,008 Climbing New York Center
Mon 12:51:06 PM 40.8017 -75.1408 272° West 330 380 16,500 942 Climbing New York Center
Mon 12:52:06 PM 40.7819 -75.2739 259° West 330 380 17,500 992 Climbing New York Center
Mon 12:53:07 PM 40.7606 -75.3956 257° West 330 380 18,500 857 Climbing New York Center
Mon 12:54:05 PM 40.7253 -75.4972 245° Southwest 342 394 19,200 857 Climbing New York Center
Mon 12:55:06 PM 40.6789 -75.6172 243° Southwest 353 406 20,200 1,073 Climbing New York Center
Mon 12:56:08 PM 40.6364 -75.7347 245° Southwest 358 412 21,400 1,200 Climbing New York Center
Mon 12:57:06 PM 40.5919 -75.8489 243° Southwest 358 412 22,600 1,311 Climbing New York Center
Mon 12:58:07 PM 40.5406 -75.9761 242° Southwest 362 417 24,000 1,289 Climbing New York Center
Mon 12:59:07 PM 40.4983 -76.0850 243° Southwest 357 411 25,200 1,210 Climbing New York Center
Mon 01:00:06 PM 40.4578 -76.1964 244° Southwest 352 405 26,400 1,210 Climbing New York Center
Mon 01:01:06 PM 40.4172 -76.3050 244° Southwest 347 399 27,600 1,200 Climbing New York Center
Mon 01:02:06 PM 40.3750 -76.4078 242° Southwest 335 386 28,800 1,109 Climbing New York Center
Mon 01:03:05 PM 40.3519 -76.4958 251° West 330 380 29,800 1,261 Climbing New York Center
Mon 01:04:05 PM 40.3186 -76.6239 251° West 319 367 31,300 1,082 Climbing New York Center
Mon 01:05:07 PM 40.2928 -76.7225 251° West 309 356 32,000 344 Climbing New York Center
Mon 01:06:07 PM 40.2642 -76.8342 251° West 315 362 32,000  Level New York Center
Mon 01:07:06 PM 40.2328 -76.9539 251° West 334 384 32,000  Level New York Center
Mon 01:08:06 PM 40.2011 -77.0842 252° West 358 412 32,000  Level New York Center
Mon 01:09:05 PM 40.1789 -77.2236 258° West 383 441 32,000  Level New York Center
Mon 01:10:06 PM 40.1719 -77.3506 266° West 393 452 32,000  Level New York Center
Mon 01:10:42 PM 40.1653 -77.4347 264° West 402 463 32,000  Level Cleveland Center
Mon 01:11:45 PM 40.1514 -77.6161 264° West 413 475 32,000  Level Cleveland Center
Mon 01:12:47 PM 40.1394 -77.7694 264° West 420 483 32,000  Level Cleveland Center
Mon 01:13:49 PM 40.1272 -77.9303 264° West 420 483 32,000  Level Cleveland Center
Mon 01:14:51 PM 40.1156 -78.0803 264° West 420 483 32,000  Level Cleveland Center
Mon 01:15:54 PM 40.1031 -78.2303 264° West 418 481 32,000  Level Cleveland Center
Mon 01:16:55 PM 40.0922 -78.3794 265° West 416 479 32,000  Level Cleveland Center
Mon 01:17:58 PM 40.0797 -78.5272 264° West 416 479 32,000  Level Cleveland Center
Mon 01:19:00 PM 40.0656 -78.7058 264° West 414 476 32,000  Level Cleveland Center
Mon 01:21:04 PM 40.0581 -79.0039 268° West 413 475 32,000  Level Cleveland Center
Mon 01:22:06 PM 40.0550 -79.1528 269° West 413 475 32,000  Level Cleveland Center
Mon 01:23:08 PM 40.0514 -79.3056 268° West 418 481 32,000  Level Cleveland Center
Mon 01:24:11 PM 40.0483 -79.4575 269° West 419 482 32,000  Level Cleveland Center
Mon 01:25:13 PM 40.0453 -79.6392 269° West 419 482 32,000  Level Cleveland Center
Mon 01:26:15 PM 40.0431 -79.7900 269° West 417 480 32,000  Level Cleveland Center
Mon 01:27:17 PM 40.0389 -79.9428 268° West 417 480 32,000  Level Cleveland Center
Mon 01:28:19 PM 40.0356 -80.0950 268° West 417 480 32,000  Level Cleveland Center
Mon 01:29:22 PM 40.0325 -80.2475 269° West 417 480 32,000 -864 Level Cleveland Center
Mon 01:30:24 PM 40.0281 -80.4033 268° West 421 484 30,200 -2,323 Descending Cleveland Center
Mon 01:31:26 PM 40.0247 -80.5608 268° West 428 493 27,200 -2,855 Descending Cleveland Center
Mon 01:32:28 PM 40.0186 -80.7553 268° West 446 513 24,300 -2,371 Descending Cleveland Center
Mon 01:33:30 PM 40.0000 -80.9119 261° West 441 507 22,300 -1,113 Descending Cleveland Center
Mon 01:34:32 PM 39.9714 -81.0631 256° West 430 495 22,000 -145 Descending Cleveland Center
Mon 01:35:34 PM 39.9417 -81.2103 255° West 423 487 22,000 -240 Level Cleveland Center
Mon 01:36:37 PM 39.9142 -81.3583 256° West 421 484 21,500 -1,296 Descending Cleveland Center
Mon 01:37:39 PM 39.8811 -81.5258 256° West 429 494 19,300 -2,226 Descending Cleveland Center
Mon 01:38:41 PM 39.8489 -81.6817 255° West 416 479 16,900 -2,226 Descending Cleveland Center
Mon 01:39:43 PM 39.8228 -81.8117 255° West 410 472 14,700 -2,343 Descending Cleveland Center
Mon 01:40:26 PM 39.7967 -81.9328 254° West 397 457 12,800 -2,169 Descending Indianapolis Center
Mon 01:41:06 PM 39.7828 -82.0042 256° West 396 456 11,700 -1,818 Descending Indianapolis Center
Mon 01:41:32 PM 39.7672 -82.0781 255° West 387 445 10,800 -1,548 Descending Indianapolis Center
Mon 01:42:08 PM 39.7553 -82.1367 255° West 387 445 10,100 -982 Descending Indianapolis Center
Mon 01:42:27 PM 39.7444 -82.1917 256° West 342 394 9,900 -97 Descending Indianapolis Center
Mon 01:43:10 PM 39.7331 -82.2522 256° West 346 398 10,000 109 Climbing Indianapolis Center
Mon 01:43:22 PM 39.7331 -82.2961 270° West 314 361 10,000 -98 Level Indianapolis Center
Mon 01:44:11 PM 39.7403 -82.3814 276° West 305 351 9,900 -200 Descending Indianapolis Center
Mon 01:44:22 PM 39.7403 -82.4031 270° West 286 329 9,800 -871 Descending Indianapolis Center
Mon 01:45:13 PM 39.7508 -82.4853 280° West 294 338 9,000 -984 Descending Indianapolis Center
Mon 01:45:23 PM 39.7631 -82.4992 319° Northwest 283 326 8,800 -1,065 Descending Indianapolis Center
Mon 01:46:15 PM 39.7983 -82.5658 305° West 284 327 7,900 -1,068 Descending Indianapolis Center
Mon 01:46:36 PM 39.8169 -82.5972 308° West 267 307 7,500 -774 Descending Indianapolis Center
Mon 01:47:17 PM 39.8378 -82.6483 298° West 273 314 7,100 -824 Descending Indianapolis Center
Mon 01:48:18 PM 39.8658 -82.7397 292° West 273 314 6,100 -585 Descending Indianapolis Center
Mon 01:49:20 PM 39.8961 -82.8325 293° West 274 315 5,900 -48 Descending Indianapolis Center
Mon 01:50:22 PM 39.9114 -82.9400 281° West 252 290 6,000  Climbing Indianapolis Center
Mon 01:51:24 PM 39.9172 -83.0267 275° West 243 280 5,900 -250 Descending Indianapolis Center
Mon 01:51:34 PM 39.9181 -83.0439 274° West 237 273 5,700 -968 Descending Indianapolis Center
Mon 01:52:26 PM 39.9225 -83.1144 275° West 242 278 4,900 -895 Descending Indianapolis Center
Mon 01:53:28 PM 39.9381 -83.1925 285° West 242 278 4,000 -683 Descending Indianapolis Center
Mon 01:54:29 PM 40.0006 -83.1903 North 235 270 3,500 -488 Descending Indianapolis Center
Mon 01:55:31 PM 40.0139 -83.1144 77° East 231 266 3,000 -492 Descending Indianapolis Center
Mon 01:56:31 PM 40.0086 -83.0175 94° East 225 259 2,500 -744 Descending Indianapolis Center
Mon 01:57:32 PM 40.0044 -82.9514 95° East 170 196 1,500 -984 Descending Indianapolis Center

Login

Don't have an account? Register now (free) for customized features, flight alerts, and more!